Time;durP1;ratioP1;P1;durP2;ratioP2;P2;SDS_P1;SDS_P2;PMS_P1;PMS_P2;Temp;Humidity;BMP_temperature;BMP_pressure;BME280_temperature;BME280_humidity;BME280_pressure;Samples;Min_cycle;Max_cycle;Signal;HPM_P1;HPM_P2
2022/10/18 00:00:49;;;;;;;;;;;;;;;;;;5114986;28;19923;-83
2022/10/18 00:03:14;;;;;;;;;;;;;;;;;;5079389;28;19964;-83
2022/10/18 00:05:40;;;;;;;;;;;;;;;;;;5096637;28;19916;-83
2022/10/18 00:08:05;;;;;;;;;;;;;;;;;;5114943;28;20329;-83
2022/10/18 00:10:30;;;;;;;;;;;;;;;;;;5083181;28;19968;-83
2022/10/18 00:12:56;;;;;;;;;;;;;;;;;;5118299;28;19923;-83
2022/10/18 00:15:21;;;;;;;;;;;;;;;;;;5117360;28;20060;-83
2022/10/18 00:17:46;;;;;;;;;;;;;;;;;;5083563;28;19916;-83
2022/10/18 00:20:12;;;;;;;;;;;;;;;;;;5118333;28;19916;-83
2022/10/18 00:22:38;;;;;;;;;;;;;;;;;;5117034;28;19915;-83
2022/10/18 00:25:03;;;;;;;;;;;;;;;;;;5117874;28;19961;-83
2022/10/18 00:27:29;;;;;;;;;;;;;;;;;;5100222;28;19915;-83
2022/10/18 00:29:54;;;;;;;;;;;;;;;;;;5083245;28;19915;-83
2022/10/18 00:32:19;;;;;;;;;;;;;;;;;;5118289;28;20279;-83
2022/10/18 00:34:45;;;;;;;;;;;;;;;;;;5117871;28;19916;-83
2022/10/18 00:37:10;;;;;;;;;;;;;;;;;;5117936;28;19989;-83
2022/10/18 00:39:35;;;;;;;;;;;;;;;;;;5118017;28;19951;-83
2022/10/18 00:42:02;;;;;;;;;;;;;;;;;;5118099;28;19916;-83
2022/10/18 00:44:27;;;;;;;;;;;;;;;;;;5117821;28;19932;-83
2022/10/18 00:46:54;;;;;;;;;;;;;;;;;;5118119;28;19919;-83
2022/10/18 00:49:36;;;;;;;;;;;;;;;;;;5083112;28;19915;-83
2022/10/18 00:52:05;;;;;;;;;;;;;;;;;;5099652;28;19964;-83
2022/10/18 00:54:31;;;;;;;;;;;;;;;;;;5099437;28;20272;-83
2022/10/18 00:56:57;;;;;;;;;;;;;;;;;;5117696;28;19916;-83
2022/10/18 00:59:25;;;;;;;;;;;;;;;;;;5117723;28;19916;-83
2022/10/18 01:01:50;;;;;;;;;;;;;;;;;;5099913;28;19923;-83
2022/10/18 01:04:16;;;;;;;;;;;;;;;;;;5099076;28;19916;-83
2022/10/18 01:06:56;;;;;;;;;;;;;;;;;;5117463;28;19951;-83
2022/10/18 01:09:27;;;;;;;;;;;;;;;;;;5117557;28;19919;-83
2022/10/18 01:11:59;;;;;;;;;;;;;;;;;;5099255;28;19973;-83
2022/10/18 01:14:33;;;;;;;;;;;;;;;;;;5117514;28;19918;-84
2022/10/18 01:17:04;;;;;;;;;;;;;;;;;;5099535;28;19920;-83
2022/10/18 01:19:32;;;;;;;;;;;;;;;;;;5098978;28;19912;-83
2022/10/18 01:22:24;;;;;;;;;;;;;;;;;;5117310;28;19915;-83
2022/10/18 01:24:55;;;;;;;;;;;;;;;;;;5113525;28;19911;-83
2022/10/18 01:27:39;;;;;;;;;;;;;;;;;;5117286;28;19963;-83
2022/10/18 01:30:26;;;;;;;;;;;;;;;;;;5117367;28;19923;-83
2022/10/18 01:32:52;;;;;;;;;;;;;;;;;;5099041;28;19923;-83
2022/10/18 01:35:21;;;;;;;;;;;;;;;;;;5099037;28;19938;-83
2022/10/18 01:37:46;;;;;;;;;;;;;;;;;;5099328;28;20325;-83
2022/10/18 01:40:11;;;;;;;;;;;;;;;;;;5099773;28;19976;-84
2022/10/18 01:42:37;;;;;;;;;;;;;;;;;;5099342;28;20357;-83
2022/10/18 01:45:02;;;;;;;;;;;;;;;;;;5117209;28;19923;-83
2022/10/18 01:47:28;;;;;;;;;;;;;;;;;;5099470;28;19922;-83
2022/10/18 01:49:59;;;;;;;;;;;;;;;;;;5116095;28;20356;-83
2022/10/18 01:52:25;;;;;;;;;;;;;;;;;;5116904;28;19943;-83
2022/10/18 01:54:50;;;;;;;;;;;;;;;;;;5099250;28;19955;-83
2022/10/18 01:57:21;;;;;;;;;;;;;;;;;;5082565;28;19923;-83
2022/10/18 02:00:05;;;;;;;;;;;;;;;;;;5117572;28;19965;-83
2022/10/18 02:02:51;;;;;;;;;;;;;;;;;;5117132;28;19916;-83
2022/10/18 02:05:19;;;;;;;;;;;;;;;;;;5098889;28;19989;-83
2022/10/18 02:07:52;;;;;;;;;;;;;;;;;;5116904;28;19922;-83
2022/10/18 02:10:26;;;;;;;;;;;;;;;;;;5116848;28;19939;-83
2022/10/18 02:12:52;;;;;;;;;;;;;;;;;;5116850;28;20034;-83
2022/10/18 02:15:18;;;;;;;;;;;;;;;;;;5098474;28;19951;-84
2022/10/18 02:17:45;;;;;;;;;;;;;;;;;;5098601;28;19916;-83
2022/10/18 02:20:10;;;;;;;;;;;;;;;;;;5081805;28;19923;-83
2022/10/18 02:22:36;;;;;;;;;;;;;;;;;;5116507;28;20238;-83
2022/10/18 02:25:02;;;;;;;;;;;;;;;;;;5116956;28;19973;-83
2022/10/18 02:27:37;;;;;;;;;;;;;;;;;;5098687;28;19971;-83
2022/10/18 02:30:03;;;;;;;;;;;;;;;;;;5098610;28;19923;-83
2022/10/18 02:32:39;;;;;;;;;;;;;;;;;;5117335;28;19916;-83
2022/10/18 02:35:09;;;;;;;;;;;;;;;;;;5084284;28;19923;-83
2022/10/18 02:37:38;;;;;;;;;;;;;;;;;;5100700;28;20240;-83
2022/10/18 02:40:04;;;;;;;;;;;;;;;;;;5101366;28;19922;-83
2022/10/18 02:42:39;;;;;;;;;;;;;;;;;;5101704;28;19998;-83
2022/10/18 02:45:04;;;;;;;;;;;;;;;;;;5121451;28;19923;-82
2022/10/18 02:47:30;;;;;;;;;;;;;;;;;;5118828;28;19899;-83
2022/10/18 02:49:55;;;;;;;;;;;;;;;;;;5136104;28;19922;-83
2022/10/18 02:52:20;;;;;;;;;;;;;;;;;;5136143;28;19903;-83
2022/10/18 02:54:46;;;;;;;;;;;;;;;;;;5136143;28;19938;-83
2022/10/18 02:57:11;;;;;;;;;;;;;;;;;;5114726;28;19975;-83
2022/10/18 02:59:36;;;;;;;;;;;;;;;;;;5129578;28;19916;-83
2022/10/18 03:02:02;;;;;;;;;;;;;;;;;;5101771;28;19916;-83
2022/10/18 03:04:27;;;;;;;;;;;;;;;;;;5117627;28;19937;-82
2022/10/18 03:06:52;;;;;;;;;;;;;;;;;;5114348;28;19916;-83
2022/10/18 03:09:18;;;;;;;;;;;;;;;;;;5115521;28;19969;-83
2022/10/18 03:11:43;;;;;;;;;;;;;;;;;;5115366;28;19926;-83
2022/10/18 03:14:09;;;;;;;;;;;;;;;;;;5115559;28;19915;-83
2022/10/18 03:16:34;;;;;;;;;;;;;;;;;;5114422;28;19916;-83
2022/10/18 03:18:59;;;;;;;;;;;;;;;;;;5114197;28;19962;-83
2022/10/18 03:21:25;;;;;;;;;;;;;;;;;;5115156;28;19915;-83
2022/10/18 03:23:50;;;;;;;;;;;;;;;;;;5115320;28;19920;-83
2022/10/18 03:26:15;;;;;;;;;;;;;;;;;;5114959;28;19923;-83
2022/10/18 03:28:41;;;;;;;;;;;;;;;;;;5113531;28;20052;-83
2022/10/18 03:31:06;;;;;;;;;;;;;;;;;;5096611;28;19911;-83
2022/10/18 03:33:32;;;;;;;;;;;;;;;;;;5096512;28;20002;-83
2022/10/18 03:35:57;;;;;;;;;;;;;;;;;;5113992;28;19919;-83
2022/10/18 03:38:22;;;;;;;;;;;;;;;;;;5096433;28;19945;-82
2022/10/18 03:40:48;;;;;;;;;;;;;;;;;;5114512;28;19922;-82
2022/10/18 03:43:13;;;;;;;;;;;;;;;;;;5112778;28;19912;-82
2022/10/18 03:45:38;;;;;;;;;;;;;;;;;;5114383;28;20010;-83
2022/10/18 03:48:04;;;;;;;;;;;;;;;;;;5114349;28;19916;-83
2022/10/18 03:50:29;;;;;;;;;;;;;;;;;;5113386;28;19951;-83
2022/10/18 03:52:55;;;;;;;;;;;;;;;;;;5114821;28;19916;-82
2022/10/18 03:55:23;;;;;;;;;;;;;;;;;;5079778;28;20324;-83
2022/10/18 03:57:48;;;;;;;;;;;;;;;;;;5113673;28;20290;-83
2022/10/18 04:00:14;;;;;;;;;;;;;;;;;;5114585;28;19964;-83
2022/10/18 04:02:39;;;;;;;;;;;;;;;;;;5113247;28;19915;-83
2022/10/18 04:05:04;;;;;;;;;;;;;;;;;;5105175;28;19957;-80
2022/10/18 04:07:30;;;;;;;;;;;;;;;;;;5092128;28;19990;-83
2022/10/18 04:09:55;;;;;;;;;;;;;;;;;;5093347;28;20810;-80
2022/10/18 04:12:21;;;;;;;;;;;;;;;;;;5075810;28;19986;-79
2022/10/18 04:14:46;;;;;;;;;;;;;;;;;;5093871;28;19923;-80
2022/10/18 04:17:11;;;;;;;;;;;;;;;;;;5075341;28;19919;-80
2022/10/18 04:19:36;;;;;;;;;;;;;;;;;;5093697;28;19916;-80
2022/10/18 04:22:02;;;;;;;;;;;;;;;;;;5099937;28;19926;-80
2022/10/18 04:24:27;;;;;;;;;;;;;;;;;;5114238;28;20014;-80
2022/10/18 04:26:55;;;;;;;;;;;;;;;;;;5114585;28;19973;-80
2022/10/18 04:29:21;;;;;;;;;;;;;;;;;;5114725;28;20022;-80
2022/10/18 04:31:47;;;;;;;;;;;;;;;;;;5096232;28;20006;-80
2022/10/18 04:34:12;;;;;;;;;;;;;;;;;;5114102;28;19916;-82
2022/10/18 04:36:38;;;;;;;;;;;;;;;;;;5096427;28;19965;-80
2022/10/18 04:39:03;;;;;;;;;;;;;;;;;;5096558;28;19916;-80
2022/10/18 04:41:28;;;;;;;;;;;;;;;;;;5116130;28;19951;-80
2022/10/18 04:43:54;;;;;;;;;;;;;;;;;;5088822;28;20346;-80
2022/10/18 04:46:19;;;;;;;;;;;;;;;;;;5093251;28;19920;-78
2022/10/18 04:48:45;;;;;;;;;;;;;;;;;;5091312;28;19924;-80
2022/10/18 04:51:10;;;;;;;;;;;;;;;;;;5112185;28;19951;-79
2022/10/18 04:53:35;;;;;;;;;;;;;;;;;;5106301;28;19930;-80
2022/10/18 04:56:05;;;;;;;;;;;;;;;;;;5101826;28;19977;-82
2022/10/18 04:58:39;;;;;;;;;;;;;;;;;;5082976;28;20007;-79
2022/10/18 05:01:05;;;;;;;;;;;;;;;;;;5105785;28;20065;-79
2022/10/18 05:03:31;;;;;;;;;;;;;;;;;;5106832;28;20002;-79
2022/10/18 05:05:57;;;;;;;;;;;;;;;;;;5105795;28;19919;-81
2022/10/18 05:08:23;;;;;;;;;;;;;;;;;;5085810;28;19920;-80
2022/10/18 05:10:49;;;;;;;;;;;;;;;;;;5103293;28;20041;-79
2022/10/18 05:13:20;;;;;;;;;;;;;;;;;;5107859;28;20003;-82
2022/10/18 05:15:46;;;;;;;;;;;;;;;;;;5089096;28;20368;-81
2022/10/18 05:18:11;;;;;;;;;;;;;;;;;;5088194;28;19930;-78
2022/10/18 05:20:36;;;;;;;;;;;;;;;;;;5090482;28;20385;-80
2022/10/18 05:23:02;;;;;;;;;;;;;;;;;;5109391;28;19976;-81
2022/10/18 05:25:27;;;;;;;;;;;;;;;;;;5116265;28;19919;-81
2022/10/18 05:27:53;;;;;;;;;;;;;;;;;;5106784;28;19920;-79
2022/10/18 05:30:28;;;;;;;;;;;;;;;;;;5122397;28;19979;-80
2022/10/18 05:32:53;;;;;;;;;;;;;;;;;;5094292;28;19915;-83
2022/10/18 05:35:27;;;;;;;;;;;;;;;;;;5097829;28;19944;-81
2022/10/18 05:38:18;;;;;;;;;;;;;;;;;;5087521;28;19916;-80
2022/10/18 05:40:44;;;;;;;;;;;;;;;;;;5122066;28;19927;-81
2022/10/18 05:43:10;;;;;;;;;;;;;;;;;;5117278;28;19916;-81
2022/10/18 05:51:07;;;;;;;;;;;;;;;;;;5237581;22;20295;-79
2022/10/18 05:53:32;;;;;;;;;;;;;;;;;;5118663;27;20505;-81
2022/10/18 05:56:07;;;;;;;;;;;;;;;;;;5127988;27;19915;-82
2022/10/18 05:58:42;;;;;;;;;;;;;;;;;;5126057;27;19923;-84
2022/10/18 06:01:08;;;;;;;;;;;;;;;;;;5111575;27;19924;-81
2022/10/18 06:03:34;;;;;;;;;;;;;;;;;;5120895;27;19968;-84
2022/10/18 06:06:03;;;;;;;;;;;;;;;;;;5117581;27;19919;-80
2022/10/18 06:08:31;;;;;;;;;;;;;;;;;;5118460;27;19920;-84
2022/10/18 06:10:57;;;;;;;;;;;;;;;;;;5091569;27;19923;-82
2022/10/18 06:13:22;;;;;;;;;;;;;;;;;;5102026;27;19930;-80
2022/10/18 06:15:48;;;;;;;;;;;;;;;;;;5121411;27;19981;-79
2022/10/18 06:18:13;;;;;;;;;;;;;;;;;;5143683;22;19927;-83
2022/10/18 06:20:45;;;;;;;;;;;;;;;;;;5085911;28;19982;-81
2022/10/18 06:23:51;;;;;;;;;;;;;;;;;;;;;
2022/10/18 06:26:18;;;;;;;;;;;;;;;;;;5084128;28;20008;-82
2022/10/18 06:28:44;;;;;;;;;;;;;;;;;;5093139;28;19967;-80
2022/10/18 06:31:10;;;;;;;;;;;;;;;;;;5092934;28;19921;-83
2022/10/18 06:33:38;;;;;;;;;;;;;;;;;;5061492;28;19924;-83
2022/10/18 06:36:10;;;;;;;;;;;;;;;;;;5091089;28;19946;-80
2022/10/18 06:38:36;;;;;;;;;;;;;;;;;;5074956;28;19935;-84
2022/10/18 06:41:18;;;;;;;;;;;;;;;;;;5092334;28;20271;-81
2022/10/18 06:43:48;;;;;;;;;;;;;;;;;;5071563;28;19924;-80
2022/10/18 06:46:14;;;;;;;;;;;;;;;;;;5101106;28;19924;-81
2022/10/18 06:48:39;;;;;;;;;;;;;;;;;;5094534;28;19920;-80
2022/10/18 06:51:05;;;;;;;;;;;;;;;;;;5076334;28;19928;-79
2022/10/18 06:53:31;;;;;;;;;;;;;;;;;;5077477;28;19924;-79
2022/10/18 06:56:05;;;;;;;;;;;;;;;;;;5103374;28;19959;-80
2022/10/18 06:58:31;;;;;;;;;;;;;;;;;;5073209;28;19942;-81
2022/10/18 07:00:58;;;;;;;;;;;;;;;;;;5047432;28;19920;-79
2022/10/18 07:03:23;;;;;;;;;;;;;;;;;;5093295;28;19928;-80
2022/10/18 07:05:51;;;;;;;;;;;;;;;;;;5092327;28;19920;-80
2022/10/18 07:08:39;;;;;;;;;;;;;;;;;;5095055;28;20249;-90
2022/10/18 07:11:05;;;;;;;;;;;;;;;;;;5060036;28;19920;-79
2022/10/18 07:13:30;;;;;;;;;;;;;;;;;;5058655;28;19924;-78
2022/10/18 07:16:09;;;;;;;;;;;;;;;;;;5092446;28;19975;-80
2022/10/18 07:18:35;;;;;;;;;;;;;;;;;;5081082;28;20031;-80
2022/10/18 07:21:02;;;;;;;;;;;;;;;;;;5069290;28;19925;-89
2022/10/18 07:23:34;;;;;;;;;;;;;;;;;;5058221;28;19920;-87
2022/10/18 07:26:09;;;;;;;;;;;;;;;;;;5042209;28;20011;-87
2022/10/18 07:28:34;;;;;;;;;;;;;;;;;;5071567;28;19923;-87
2022/10/18 07:35:14;;;;;;;;;;;;;;;;;;5059203;28;19928;-84
2022/10/18 07:38:00;;;;;;;;;;;;;;;;;;5064927;28;20018;-87
2022/10/18 07:40:28;;;;;;;;;;;;;;;;;;5067018;28;19924;-86
2022/10/18 07:42:53;;;;;;;;;;;;;;;;;;5052812;28;19920;-87
2022/10/18 07:45:19;;;;;;;;;;;;;;;;;;5038613;28;19917;-85
2022/10/18 07:47:45;;;;;;;;;;;;;;;;;;5050875;28;19923;-86
2022/10/18 07:50:10;;;;;;;;;;;;;;;;;;5035448;28;20288;-88
2022/10/18 07:52:36;;;;;;;;;;;;;;;;;;5054831;28;20283;-81
2022/10/18 07:55:43;;;;;;;;;;;;;;;;;;;;;
2022/10/18 07:58:11;;;;;;;;;;;;;;;;;;5077187;22;19954;-85
2022/10/18 08:00:37;;;;;;;;;;;;;;;;;;5051461;28;20455;-86
2022/10/18 08:03:02;;;;;;;;;;;;;;;;;;5071450;28;19970;-88
2022/10/18 08:05:59;;;;;;;;;;;;;;;;;;5073883;22;19921;-89
2022/10/18 08:08:24;;;;;;;;;;;;;;;;;;5113200;28;19923;-83
2022/10/18 08:10:50;;;;;;;;;;;;;;;;;;5113367;28;19993;-83
2022/10/18 08:13:15;;;;;;;;;;;;;;;;;;5094772;28;20013;-81
2022/10/18 08:15:40;;;;;;;;;;;;;;;;;;5088925;28;19919;-82
2022/10/18 08:18:06;;;;;;;;;;;;;;;;;;5122501;28;19923;-81
2022/10/18 08:20:32;;;;;;;;;;;;;;;;;;5108485;28;20424;-82
2022/10/18 08:22:57;;;;;;;;;;;;;;;;;;5110714;28;19930;-83
2022/10/18 08:25:23;;;;;;;;;;;;;;;;;;5107288;28;20319;-83
2022/10/18 08:27:54;;;;;;;;;;;;;;;;;;5133346;28;19948;-83
2022/10/18 08:30:19;;;;;;;;;;;;;;;;;;5123661;27;20509;-84
2022/10/18 08:32:48;;;;;;;;;;;;;;;;;;5137511;27;19994;-82
2022/10/18 08:35:13;;;;;;;;;;;;;;;;;;5120241;27;20021;-85
2022/10/18 08:37:39;;;;;;;;;;;;;;;;;;5093607;27;20030;-83
2022/10/18 08:40:05;;;;;;;;;;;;;;;;;;5109752;27;19926;-82
2022/10/18 08:42:42;;;;;;;;;;;;;;;;;;5118701;27;20009;-82
2022/10/18 08:45:11;;;;;;;;;;;;;;;;;;5117662;27;19919;-84
2022/10/18 08:47:42;;;;;;;;;;;;;;;;;;5141151;27;20019;-86
2022/10/18 08:50:25;;;;;;;;;;;;;;;;;;5123524;27;19939;-84
2022/10/18 08:53:11;;;;;;;;;;;;;;;;;;5126079;27;19930;-84
2022/10/18 08:58:04;;;;;;;;;;;;;;;;;;5188402;22;19934;-84
2022/10/18 09:00:33;;;;;;;;;;;;;;;;;;5157997;27;19926;-83
2022/10/18 09:03:17;;;;;;;;;;;;;;;;;;5159093;27;20340;-82
2022/10/18 09:05:58;;;;;;;;;;;;;;;;;;5174218;27;19915;-81
2022/10/18 09:08:29;;;;;;;;;;;;;;;;;;5156267;27;19964;-83
2022/10/18 09:10:54;;;;;;;;;;;;;;;;;;5164106;27;19923;-82
2022/10/18 09:13:32;;;;;;;;;;;;;;;;;;5153162;27;19937;-80
2022/10/18 09:15:58;;;;;;;;;;;;;;;;;;5154681;27;20030;-82
2022/10/18 09:18:28;;;;;;;;;;;;;;;;;;5126944;27;19915;-82
2022/10/18 09:20:57;;;;;;;;;;;;;;;;;;5140036;27;19915;-82
2022/10/18 09:23:43;;;;;;;;;;;;;;;;;;5136793;27;19915;-82
2022/10/18 09:26:24;;;;;;;;;;;;;;;;;;5119838;27;19915;-81
2022/10/18 09:29:00;;;;;;;;;;;;;;;;;;5144375;27;19926;-81
2022/10/18 09:31:32;;;;;;;;;;;;;;;;;;5162216;27;19931;-80
2022/10/18 09:34:00;;;;;;;;;;;;;;;;;;5174755;27;19939;-82
2022/10/18 09:36:27;;;;;;;;;;;;;;;;;;5160576;27;20312;-82
2022/10/18 09:38:56;;;;;;;;;;;;;;;;;;5178684;27;19942;-80
2022/10/18 09:41:25;;;;;;;;;;;;;;;;;;5159692;27;19914;-80
2022/10/18 09:44:08;;;;;;;;;;;;;;;;;;5139120;27;19924;-78
2022/10/18 09:46:35;;;;;;;;;;;;;;;;;;5177460;27;19948;-80
2022/10/18 09:49:08;;;;;;;;;;;;;;;;;;5141262;27;19918;-79
2022/10/18 09:51:35;;;;;;;;;;;;;;;;;;5159074;27;19918;-78
2022/10/18 09:54:18;;;;;;;;;;;;;;;;;;5150618;27;19930;-79
2022/10/18 09:56:46;;;;;;;;;;;;;;;;;;5095608;27;1260303;-78
2022/10/18 09:59:21;;;;;;;;;;;;;;;;;;5142077;27;19930;-76
2022/10/18 10:01:46;;;;;;;;;;;;;;;;;;5133681;27;20014;-78
2022/10/18 10:04:13;;;;;;;;;;;;;;;;;;5145970;27;20013;-76
2022/10/18 10:06:38;;;;;;;;;;;;;;;;;;5150328;27;19931;-77
2022/10/18 10:09:05;;;;;;;;;;;;;;;;;;5138953;27;19926;-78
2022/10/18 10:11:31;;;;;;;;;;;;;;;;;;5156765;27;20507;-77
2022/10/18 10:13:59;;;;;;;;;;;;;;;;;;5160456;27;19915;-76
2022/10/18 10:16:24;;;;;;;;;;;;;;;;;;5156422;27;19918;-78
2022/10/18 10:18:53;;;;;;;;;;;;;;;;;;5154278;27;20461;-77
2022/10/18 10:21:18;;;;;;;;;;;;;;;;;;5142031;27;20005;-76
2022/10/18 10:23:44;;;;;;;;;;;;;;;;;;5144360;27;20053;-75
2022/10/18 10:26:21;;;;;;;;;;;;;;;;;;5136575;27;20359;-76
2022/10/18 10:28:47;;;;;;;;;;;;;;;;;;5175834;27;19977;-78
2022/10/18 10:31:33;;;;;;;;;;;;;;;;;;5144546;27;19991;-80
2022/10/18 10:34:00;;;;;;;;;;;;;;;;;;5168035;27;19930;-80
2022/10/18 10:36:26;;;;;;;;;;;;;;;;;;5150931;27;20007;-82
2022/10/18 10:39:05;;;;;;;;;;;;;;;;;;5133705;27;20491;-81
2022/10/18 10:41:30;;;;;;;;;;;;;;;;;;5140483;27;20664;-78
2022/10/18 10:44:19;;;;;;;;;;;;;;;;;;5149019;27;20564;-80
2022/10/18 10:46:44;;;;;;;;;;;;;;;;;;5167885;27;19990;-80
2022/10/18 10:49:23;;;;;;;;;;;;;;;;;;5130100;27;19922;-80
2022/10/18 10:51:58;;;;;;;;;;;;;;;;;;5123735;27;19923;-80
2022/10/18 10:54:23;;;;;;;;;;;;;;;;;;5150091;27;19923;-82
2022/10/18 10:56:52;;;;;;;;;;;;;;;;;;5141139;27;20239;-80
2022/10/18 10:59:17;;;;;;;;;;;;;;;;;;5152301;27;20267;-82
2022/10/18 11:01:44;;;;;;;;;;;;;;;;;;5154715;27;19915;-80
2022/10/18 11:04:22;;;;;;;;;;;;;;;;;;5144639;27;20006;-79
2022/10/18 11:06:48;;;;;;;;;;;;;;;;;;5157902;27;19962;-82
2022/10/18 11:09:19;;;;;;;;;;;;;;;;;;5163729;27;19962;-78
2022/10/18 11:11:48;;;;;;;;;;;;;;;;;;5130763;27;19915;-78
2022/10/18 11:14:19;;;;;;;;;;;;;;;;;;5160547;27;19934;-79
2022/10/18 11:16:54;;;;;;;;;;;;;;;;;;5139156;27;19915;-80
2022/10/18 11:19:31;;;;;;;;;;;;;;;;;;5143655;27;20400;-81
2022/10/18 11:21:56;;;;;;;;;;;;;;;;;;5142020;27;19922;-79
2022/10/18 11:24:22;;;;;;;;;;;;;;;;;;5165512;27;19915;-80
2022/10/18 11:27:08;;;;;;;;;;;;;;;;;;5181758;27;19915;-79
2022/10/18 11:29:53;;;;;;;;;;;;;;;;;;5153802;27;20018;-79
2022/10/18 11:32:30;;;;;;;;;;;;;;;;;;5170963;27;19911;-79
2022/10/18 11:34:56;;;;;;;;;;;;;;;;;;5166864;27;19925;-79
2022/10/18 11:37:30;;;;;;;;;;;;;;;;;;5154175;27;19915;-79
2022/10/18 11:40:00;;;;;;;;;;;;;;;;;;5148678;27;20338;-82
2022/10/18 11:42:28;;;;;;;;;;;;;;;;;;5133223;27;20002;-80
2022/10/18 11:45:09;;;;;;;;;;;;;;;;;;5140782;27;19925;-80
2022/10/18 11:48:03;;;;;;;;;;;;;;;;;;5161836;27;20315;-81
2022/10/18 11:50:33;;;;;;;;;;;;;;;;;;5151641;27;19915;-80
2022/10/18 11:53:04;;;;;;;;;;;;;;;;;;5132353;27;19946;-81
2022/10/18 11:55:37;;;;;;;;;;;;;;;;;;5151152;27;19911;-79
2022/10/18 11:58:21;;;;;;;;;;;;;;;;;;5153395;27;19918;-82
2022/10/18 12:00:47;;;;;;;;;;;;;;;;;;5153716;27;20251;-80
2022/10/18 12:03:42;;;;;;;;;;;;;;;;;;5154062;27;19974;-82
2022/10/18 12:06:15;;;;;;;;;;;;;;;;;;5066712;27;19917;-81
2022/10/18 12:08:40;;;;;;;;;;;;;;;;;;5159089;27;19973;-80
2022/10/18 12:11:11;;;;;;;;;;;;;;;;;;5177480;27;19960;-82
2022/10/18 12:13:40;;;;;;;;;;;;;;;;;;5159205;27;20280;-82
2022/10/18 12:16:05;;;;;;;;;;;;;;;;;;5176686;27;19998;-81
2022/10/18 12:18:31;;;;;;;;;;;;;;;;;;5135531;27;20316;-82
2022/10/18 12:21:02;;;;;;;;;;;;;;;;;;5168170;27;19915;-81
2022/10/18 12:23:28;;;;;;;;;;;;;;;;;;5156526;27;19995;-81
2022/10/18 12:25:54;;;;;;;;;;;;;;;;;;5177351;27;19971;-81
2022/10/18 12:28:19;;;;;;;;;;;;;;;;;;5159099;27;19915;-82
2022/10/18 12:30:52;;;;;;;;;;;;;;;;;;5159477;27;20010;-81
2022/10/18 12:33:25;;;;;;;;;;;;;;;;;;5160253;27;19997;-82
2022/10/18 12:35:53;;;;;;;;;;;;;;;;;;5161123;27;19998;-82
2022/10/18 12:38:20;;;;;;;;;;;;;;;;;;5177769;27;20247;-82
2022/10/18 12:40:47;;;;;;;;;;;;;;;;;;5159292;27;20014;-82
2022/10/18 12:43:16;;;;;;;;;;;;;;;;;;5159237;27;20394;-81
2022/10/18 12:46:10;;;;;;;;;;;;;;;;;;5178240;27;19914;-81
2022/10/18 12:48:38;;;;;;;;;;;;;;;;;;5175404;27;20321;-80
2022/10/18 12:51:07;;;;;;;;;;;;;;;;;;5159001;27;19915;-81
2022/10/18 12:53:32;;;;;;;;;;;;;;;;;;5178970;27;20236;-81
2022/10/18 12:56:16;;;;;;;;;;;;;;;;;;5143092;27;19982;-81
2022/10/18 12:58:42;;;;;;;;;;;;;;;;;;5179546;27;19914;-81
2022/10/18 13:01:07;;;;;;;;;;;;;;;;;;5161134;27;19914;-82
2022/10/18 13:03:37;;;;;;;;;;;;;;;;;;5161173;27;19922;-81
2022/10/18 13:06:02;;;;;;;;;;;;;;;;;;5143651;27;19969;-82
2022/10/18 13:08:28;;;;;;;;;;;;;;;;;;5179729;27;19952;-82
2022/10/18 13:13:36;;;;;;;;;;;;;;;;;;5179356;27;19914;-81
2022/10/18 13:16:07;;;;;;;;;;;;;;;;;;5179236;27;19922;-80
2022/10/18 13:18:32;;;;;;;;;;;;;;;;;;5179579;27;19915;-82
2022/10/18 13:21:07;;;;;;;;;;;;;;;;;;5179666;27;20229;-81
2022/10/18 13:23:32;;;;;;;;;;;;;;;;;;5161117;27;20002;-81
2022/10/18 13:25:57;;;;;;;;;;;;;;;;;;5179488;27;19919;-82
2022/10/18 13:28:29;;;;;;;;;;;;;;;;;;5160829;27;19922;-81
2022/10/18 13:31:13;;;;;;;;;;;;;;;;;;5143484;27;20053;-81
2022/10/18 13:33:39;;;;;;;;;;;;;;;;;;5179287;27;19918;-81
2022/10/18 13:36:25;;;;;;;;;;;;;;;;;;5160616;27;19921;-81
2022/10/18 13:39:02;;;;;;;;;;;;;;;;;;5178585;27;19922;-81
2022/10/18 13:41:46;;;;;;;;;;;;;;;;;;5160720;27;19979;-81
2022/10/18 13:44:27;;;;;;;;;;;;;;;;;;5179131;27;19915;-82
2022/10/18 13:46:55;;;;;;;;;;;;;;;;;;5160729;27;19915;-81
2022/10/18 13:49:29;;;;;;;;;;;;;;;;;;5179117;27;20334;-82
2022/10/18 13:52:04;;;;;;;;;;;;;;;;;;5179311;27;20295;-82
2022/10/18 13:54:29;;;;;;;;;;;;;;;;;;5178882;27;19915;-82
2022/10/18 13:57:03;;;;;;;;;;;;;;;;;;5159759;27;19926;-82
2022/10/18 13:59:38;;;;;;;;;;;;;;;;;;5178589;27;19914;-81
2022/10/18 14:02:03;;;;;;;;;;;;;;;;;;5178582;27;19914;-82
2022/10/18 14:05:01;;;;;;;;;;;;;;;;;;5178723;27;19914;-81
2022/10/18 14:07:26;;;;;;;;;;;;;;;;;;5132287;27;20296;-81
2022/10/18 14:09:51;;;;;;;;;;;;;;;;;;5160367;27;19919;-82
2022/10/18 14:12:20;;;;;;;;;;;;;;;;;;5142468;27;19914;-82
2022/10/18 14:15:06;;;;;;;;;;;;;;;;;;5159864;27;19914;-82
2022/10/18 14:17:40;;;;;;;;;;;;;;;;;;5142433;27;19915;-81
2022/10/18 14:20:15;;;;;;;;;;;;;;;;;;5160139;27;19914;-81
2022/10/18 14:22:45;;;;;;;;;;;;;;;;;;5178406;27;20382;-82
2022/10/18 14:25:37;;;;;;;;;;;;;;;;;;5142645;27;19945;-82
2022/10/18 14:28:20;;;;;;;;;;;;;;;;;;5173177;27;19975;-82
2022/10/18 14:30:53;;;;;;;;;;;;;;;;;;5142330;27;19915;-82
2022/10/18 14:33:24;;;;;;;;;;;;;;;;;;5159535;27;19914;-82
2022/10/18 14:36:00;;;;;;;;;;;;;;;;;;5178057;27;19939;-82
2022/10/18 14:38:25;;;;;;;;;;;;;;;;;;5177727;27;19915;-82
2022/10/18 14:40:55;;;;;;;;;;;;;;;;;;5158985;27;19915;-81
2022/10/18 14:43:20;;;;;;;;;;;;;;;;;;5142044;27;19922;-82
2022/10/18 14:45:46;;;;;;;;;;;;;;;;;;5159318;27;19977;-79
2022/10/18 14:48:21;;;;;;;;;;;;;;;;;;5141723;27;20259;-80
2022/10/18 14:50:47;;;;;;;;;;;;;;;;;;5159520;27;19970;-81
2022/10/18 14:53:14;;;;;;;;;;;;;;;;;;5159235;27;19918;-81
2022/10/18 14:55:41;;;;;;;;;;;;;;;;;;5159440;27;19986;-81
2022/10/18 14:58:14;;;;;;;;;;;;;;;;;;5159071;27;20376;-81
2022/10/18 15:00:39;;;;;;;;;;;;;;;;;;5159145;27;19971;-81
2022/10/18 15:03:06;;;;;;;;;;;;;;;;;;5158909;27;19915;-81
2022/10/18 15:05:31;;;;;;;;;;;;;;;;;;5159104;27;19915;-82
2022/10/18 15:07:58;;;;;;;;;;;;;;;;;;5158450;27;19971;-81
2022/10/18 15:10:31;;;;;;;;;;;;;;;;;;5141806;27;20335;-81
2022/10/18 15:13:00;;;;;;;;;;;;;;;;;;5141801;27;20320;-81
2022/10/18 15:15:26;;;;;;;;;;;;;;;;;;5177427;27;20323;-82
2022/10/18 15:17:52;;;;;;;;;;;;;;;;;;5158616;27;19922;-81
2022/10/18 15:20:17;;;;;;;;;;;;;;;;;;5177600;27;19919;-81
2022/10/18 15:22:45;;;;;;;;;;;;;;;;;;5158829;27;19917;-81
2022/10/18 15:25:14;;;;;;;;;;;;;;;;;;5177263;27;20219;-81
2022/10/18 15:27:43;;;;;;;;;;;;;;;;;;5158624;27;20259;-82
2022/10/18 15:30:27;;;;;;;;;;;;;;;;;;5141951;27;19915;-82
2022/10/18 15:32:56;;;;;;;;;;;;;;;;;;5158728;27;19910;-81
2022/10/18 15:35:23;;;;;;;;;;;;;;;;;;5158812;27;20013;-81
2022/10/18 15:37:48;;;;;;;;;;;;;;;;;;5140667;27;20251;-81
2022/10/18 15:40:20;;;;;;;;;;;;;;;;;;5158249;27;19915;-81
2022/10/18 15:42:45;;;;;;;;;;;;;;;;;;5176992;27;20319;-81
2022/10/18 15:45:23;;;;;;;;;;;;;;;;;;5177095;27;20001;-81
2022/10/18 15:48:09;;;;;;;;;;;;;;;;;;5177114;27;19915;-81
2022/10/18 15:50:41;;;;;;;;;;;;;;;;;;5177016;27;19914;-81
2022/10/18 15:53:29;;;;;;;;;;;;;;;;;;5176645;27;20010;-81
2022/10/18 15:56:08;;;;;;;;;;;;;;;;;;5176415;27;19997;-80
2022/10/18 15:58:44;;;;;;;;;;;;;;;;;;5140990;27;19914;-81
2022/10/18 16:01:13;;;;;;;;;;;;;;;;;;5141485;27;19914;-80
2022/10/18 16:03:39;;;;;;;;;;;;;;;;;;5158138;27;19926;-80
2022/10/18 16:06:05;;;;;;;;;;;;;;;;;;5157987;27;19915;-81
2022/10/18 16:08:32;;;;;;;;;;;;;;;;;;5176780;27;19914;-81
2022/10/18 16:10:57;;;;;;;;;;;;;;;;;;5176612;27;19961;-81
2022/10/18 16:13:23;;;;;;;;;;;;;;;;;;5177869;27;19915;-80
2022/10/18 16:15:48;;;;;;;;;;;;;;;;;;5177559;27;19938;-80
2022/10/18 16:18:14;;;;;;;;;;;;;;;;;;5142224;27;19958;-80
2022/10/18 16:20:39;;;;;;;;;;;;;;;;;;5159349;27;19915;-80
2022/10/18 16:23:17;;;;;;;;;;;;;;;;;;5177960;27;19914;-81
2022/10/18 16:25:42;;;;;;;;;;;;;;;;;;5177232;27;20328;-81
2022/10/18 16:28:11;;;;;;;;;;;;;;;;;;5140873;27;19921;-81
2022/10/18 16:30:36;;;;;;;;;;;;;;;;;;5140833;27;19954;-81
2022/10/18 16:33:02;;;;;;;;;;;;;;;;;;5158051;27;19922;-82
2022/10/18 16:35:27;;;;;;;;;;;;;;;;;;5176542;27;19914;-81
2022/10/18 16:37:54;;;;;;;;;;;;;;;;;;5176375;27;19923;-81
2022/10/18 16:40:23;;;;;;;;;;;;;;;;;;5158189;27;20005;-81
2022/10/18 16:42:48;;;;;;;;;;;;;;;;;;5142411;27;19914;-81
2022/10/18 16:45:13;;;;;;;;;;;;;;;;;;5159376;27;20005;-81
2022/10/18 16:47:39;;;;;;;;;;;;;;;;;;5158030;27;19950;-81
2022/10/18 16:50:07;;;;;;;;;;;;;;;;;;5177358;27;20348;-81
2022/10/18 16:52:32;;;;;;;;;;;;;;;;;;5181038;27;19915;-81
2022/10/18 16:54:58;;;;;;;;;;;;;;;;;;5163528;27;19983;-81
2022/10/18 16:57:23;;;;;;;;;;;;;;;;;;5146224;27;19925;-81
2022/10/18 16:59:48;;;;;;;;;;;;;;;;;;5182546;27;19914;-82
2022/10/18 17:02:13;;;;;;;;;;;;;;;;;;5194346;27;19967;-81
2022/10/18 17:04:39;;;;;;;;;;;;;;;;;;5203233;27;19964;-82
2022/10/18 17:07:05;;;;;;;;;;;;;;;;;;5203323;27;19918;-82
2022/10/18 17:09:30;;;;;;;;;;;;;;;;;;5203055;27;19936;-82
2022/10/18 17:11:55;;;;;;;;;;;;;;;;;;5203572;27;19937;-82
2022/10/18 17:14:21;;;;;;;;;;;;;;;;;;5183482;27;19929;-81
2022/10/18 17:16:46;;;;;;;;;;;;;;;;;;5178397;27;19915;-81